3D2

Ephraim-Gibraltar Airport

Ephraim, Wisconsin, USA
METAR K3D2 130615Z AUTO 32008G15KT 10SM OVC050 M05/M12 A3030 RMK AO2 T10501123
Observed Flight Rules
Nov-13 @ 06:15 UTC (41 minutes ago) Visual Flight Rules
Wind Visibility Clouds
320° at 8 knots
 Gusting to 15 knots
10 miles
  • Overcast at 5,000' AGL
Temperatures Readings
Current -5°C / 23°F
Dewpoint -12°C / 10°F
Humidity 58%
Altimeter 30.3" Hg
Pressure 1026 hPa
Elevation 234
METAR K3D2 130615Z AUTO 32008G15KT 10SM OVC050 M05/M12 A3030 RMK AO2 T10501123
Observed Flight Rules
Nov-13 @ 06:15 UTC
(41 minutes ago)
VFR
Wind Visibility
320° at 8 knots
 Gusting to 15 knots
10 miles
Clouds
  • Overcast at 5,000' AGL
Temperature Dewpoint
-5°C / 23°F -12°C / 10°F
Humidity Altimeter Pressure
58% 30.3" Hg 1026 hPa